sensor_id;sensor_type;location;lat;lon;timestamp;temperature;humidity
19279;DHT22;9773;47.062;15.446;2023-04-06T00:01:53;1.50;77.00
19279;DHT22;9773;47.062;15.446;2023-04-06T00:04:19;1.50;77.30
19279;DHT22;9773;47.062;15.446;2023-04-06T00:06:45;1.40;77.50
19279;DHT22;9773;47.062;15.446;2023-04-06T00:09:11;1.40;77.30
19279;DHT22;9773;47.062;15.446;2023-04-06T00:11:36;1.40;77.20
19279;DHT22;9773;47.062;15.446;2023-04-06T00:14:02;1.40;76.90
19279;DHT22;9773;47.062;15.446;2023-04-06T00:16:28;1.40;77.20
19279;DHT22;9773;47.062;15.446;2023-04-06T00:18:53;1.40;77.10
19279;DHT22;9773;47.062;15.446;2023-04-06T00:21:19;1.30;77.20
19279;DHT22;9773;47.062;15.446;2023-04-06T00:23:45;1.40;77.50
19279;DHT22;9773;47.062;15.446;2023-04-06T00:26:11;1.20;77.70
19279;DHT22;9773;47.062;15.446;2023-04-06T00:28:39;1.30;77.80
19279;DHT22;9773;47.062;15.446;2023-04-06T00:31:05;1.30;77.50
19279;DHT22;9773;47.062;15.446;2023-04-06T00:33:32;1.30;77.50
19279;DHT22;9773;47.062;15.446;2023-04-06T00:35:57;1.30;77.50
19279;DHT22;9773;47.062;15.446;2023-04-06T00:38:23;1.40;77.60
19279;DHT22;9773;47.062;15.446;2023-04-06T00:40:49;1.40;77.70
19279;DHT22;9773;47.062;15.446;2023-04-06T00:43:15;1.40;77.60
19279;DHT22;9773;47.062;15.446;2023-04-06T00:45:41;1.40;77.60
19279;DHT22;9773;47.062;15.446;2023-04-06T00:48:08;1.50;77.50
19279;DHT22;9773;47.062;15.446;2023-04-06T00:50:34;1.50;77.30
19279;DHT22;9773;47.062;15.446;2023-04-06T00:53:00;1.60;77.30
19279;DHT22;9773;47.062;15.446;2023-04-06T00:55:29;1.60;77.30
19279;DHT22;9773;47.062;15.446;2023-04-06T00:57:58;1.50;77.40
19279;DHT22;9773;47.062;15.446;2023-04-06T01:00:25;1.50;77.30
19279;DHT22;9773;47.062;15.446;2023-04-06T01:02:51;1.40;77.40
19279;DHT22;9773;47.062;15.446;2023-04-06T01:05:16;1.40;77.60
19279;DHT22;9773;47.062;15.446;2023-04-06T01:07:42;1.40;77.60
19279;DHT22;9773;47.062;15.446;2023-04-06T01:10:08;1.40;77.80
19279;DHT22;9773;47.062;15.446;2023-04-06T01:12:34;1.30;77.90
19279;DHT22;9773;47.062;15.446;2023-04-06T01:15:00;1.40;78.30
19279;DHT22;9773;47.062;15.446;2023-04-06T01:17:26;1.30;78.00
19279;DHT22;9773;47.062;15.446;2023-04-06T01:19:53;1.30;78.80
19279;DHT22;9773;47.062;15.446;2023-04-06T01:22:19;1.30;77.80
19279;DHT22;9773;47.062;15.446;2023-04-06T01:24:45;1.30;77.80
19279;DHT22;9773;47.062;15.446;2023-04-06T01:27:12;1.20;77.60
19279;DHT22;9773;47.062;15.446;2023-04-06T01:29:38;1.40;77.90
19279;DHT22;9773;47.062;15.446;2023-04-06T01:32:07;1.30;77.60
19279;DHT22;9773;47.062;15.446;2023-04-06T01:34:32;1.30;77.80
19279;DHT22;9773;47.062;15.446;2023-04-06T01:36:58;1.30;77.90
19279;DHT22;9773;47.062;15.446;2023-04-06T01:39:25;1.20;78.00
19279;DHT22;9773;47.062;15.446;2023-04-06T01:41:51;1.20;78.40
19279;DHT22;9773;47.062;15.446;2023-04-06T01:44:18;1.30;78.30
19279;DHT22;9773;47.062;15.446;2023-04-06T01:46:46;1.20;78.50
19279;DHT22;9773;47.062;15.446;2023-04-06T01:49:12;1.20;78.80
19279;DHT22;9773;47.062;15.446;2023-04-06T01:51:38;1.20;78.60
19279;DHT22;9773;47.062;15.446;2023-04-06T01:54:04;1.10;78.60
19279;DHT22;9773;47.062;15.446;2023-04-06T01:56:30;1.00;78.80
19279;DHT22;9773;47.062;15.446;2023-04-06T01:58:56;1.00;78.80
19279;DHT22;9773;47.062;15.446;2023-04-06T02:01:22;0.90;78.80
19279;DHT22;9773;47.062;15.446;2023-04-06T02:03:47;0.80;79.20
19279;DHT22;9773;47.062;15.446;2023-04-06T02:06:13;0.80;79.40
19279;DHT22;9773;47.062;15.446;2023-04-06T02:08:39;0.70;79.80
19279;DHT22;9773;47.062;15.446;2023-04-06T02:11:05;0.70;80.10
19279;DHT22;9773;47.062;15.446;2023-04-06T02:13:30;0.60;80.00
19279;DHT22;9773;47.062;15.446;2023-04-06T02:15:56;0.70;79.60
19279;DHT22;9773;47.062;15.446;2023-04-06T02:18:22;0.70;80.00
19279;DHT22;9773;47.062;15.446;2023-04-06T02:20:48;0.70;79.70
19279;DHT22;9773;47.062;15.446;2023-04-06T02:23:14;0.70;79.40
19279;DHT22;9773;47.062;15.446;2023-04-06T02:25:40;0.70;79.30
19279;DHT22;9773;47.062;15.446;2023-04-06T02:28:06;0.80;79.40
19279;DHT22;9773;47.062;15.446;2023-04-06T02:30:32;0.70;79.50
19279;DHT22;9773;47.062;15.446;2023-04-06T02:33:01;0.80;79.40
19279;DHT22;9773;47.062;15.446;2023-04-06T02:35:28;0.80;79.40
19279;DHT22;9773;47.062;15.446;2023-04-06T02:37:54;0.80;79.20
19279;DHT22;9773;47.062;15.446;2023-04-06T02:40:20;0.80;79.10
19279;DHT22;9773;47.062;15.446;2023-04-06T02:42:47;0.80;79.20
19279;DHT22;9773;47.062;15.446;2023-04-06T02:45:13;0.80;79.30
19279;DHT22;9773;47.062;15.446;2023-04-06T02:47:38;0.90;79.30
19279;DHT22;9773;47.062;15.446;2023-04-06T02:50:04;0.70;79.50
19279;DHT22;9773;47.062;15.446;2023-04-06T02:52:31;0.80;79.50
19279;DHT22;9773;47.062;15.446;2023-04-06T02:54:56;0.90;79.30
19279;DHT22;9773;47.062;15.446;2023-04-06T02:57:22;0.80;79.50
19279;DHT22;9773;47.062;15.446;2023-04-06T02:59:48;0.80;79.40
19279;DHT22;9773;47.062;15.446;2023-04-06T03:02:14;0.80;79.40
19279;DHT22;9773;47.062;15.446;2023-04-06T03:04:39;0.90;79.40
19279;DHT22;9773;47.062;15.446;2023-04-06T03:07:05;1.00;79.50
19279;DHT22;9773;47.062;15.446;2023-04-06T03:09:30;0.80;79.30
19279;DHT22;9773;47.062;15.446;2023-04-06T03:11:56;0.80;79.30
19279;DHT22;9773;47.062;15.446;2023-04-06T03:14:22;0.80;79.50
19279;DHT22;9773;47.062;15.446;2023-04-06T03:16:48;0.70;79.40
19279;DHT22;9773;47.062;15.446;2023-04-06T03:19:14;0.70;79.50
19279;DHT22;9773;47.062;15.446;2023-04-06T03:21:41;0.60;79.40
19279;DHT22;9773;47.062;15.446;2023-04-06T03:24:07;0.60;79.70
19279;DHT22;9773;47.062;15.446;2023-04-06T03:26:33;0.60;79.70
19279;DHT22;9773;47.062;15.446;2023-04-06T03:28:59;0.50;79.70
19279;DHT22;9773;47.062;15.446;2023-04-06T03:31:26;0.40;79.90
19279;DHT22;9773;47.062;15.446;2023-04-06T03:33:52;0.30;80.40
19279;DHT22;9773;47.062;15.446;2023-04-06T03:36:17;0.30;80.50
19279;DHT22;9773;47.062;15.446;2023-04-06T03:38:43;0.30;80.50
19279;DHT22;9773;47.062;15.446;2023-04-06T03:41:09;0.30;80.40
19279;DHT22;9773;47.062;15.446;2023-04-06T03:43:35;0.40;80.50
19279;DHT22;9773;47.062;15.446;2023-04-06T03:46:01;0.30;80.60
19279;DHT22;9773;47.062;15.446;2023-04-06T03:48:27;0.30;80.60
19279;DHT22;9773;47.062;15.446;2023-04-06T03:50:52;0.40;80.50
19279;DHT22;9773;47.062;15.446;2023-04-06T03:53:18;0.40;80.40
19279;DHT22;9773;47.062;15.446;2023-04-06T03:55:44;0.40;80.30
19279;DHT22;9773;47.062;15.446;2023-04-06T03:58:09;0.40;80.30
19279;DHT22;9773;47.062;15.446;2023-04-06T04:00:35;0.40;80.30
19279;DHT22;9773;47.062;15.446;2023-04-06T04:03:01;0.30;80.30
19279;DHT22;9773;47.062;15.446;2023-04-06T04:05:28;0.30;80.50
19279;DHT22;9773;47.062;15.446;2023-04-06T04:07:53;0.20;80.50
19279;DHT22;9773;47.062;15.446;2023-04-06T04:10:19;0.20;80.90
19279;DHT22;9773;47.062;15.446;2023-04-06T04:12:45;0.30;80.70
19279;DHT22;9773;47.062;15.446;2023-04-06T04:15:11;0.30;81.00
19279;DHT22;9773;47.062;15.446;2023-04-06T04:17:36;0.30;80.80
19279;DHT22;9773;47.062;15.446;2023-04-06T04:20:02;0.30;80.90
19279;DHT22;9773;47.062;15.446;2023-04-06T04:22:28;0.40;80.80
19279;DHT22;9773;47.062;15.446;2023-04-06T04:24:54;0.50;80.80
19279;DHT22;9773;47.062;15.446;2023-04-06T04:27:19;0.40;80.60
19279;DHT22;9773;47.062;15.446;2023-04-06T04:29:46;0.30;80.90
19279;DHT22;9773;47.062;15.446;2023-04-06T04:32:11;0.40;81.10
19279;DHT22;9773;47.062;15.446;2023-04-06T04:34:37;0.30;81.10
19279;DHT22;9773;47.062;15.446;2023-04-06T04:37:06;0.40;81.40
19279;DHT22;9773;47.062;15.446;2023-04-06T04:39:32;0.40;81.20
19279;DHT22;9773;47.062;15.446;2023-04-06T04:41:58;0.40;81.00
19279;DHT22;9773;47.062;15.446;2023-04-06T04:44:24;0.40;81.10
19279;DHT22;9773;47.062;15.446;2023-04-06T04:46:49;0.30;81.20
19279;DHT22;9773;47.062;15.446;2023-04-06T04:49:15;0.30;81.30
19279;DHT22;9773;47.062;15.446;2023-04-06T04:51:41;0.30;81.30
19279;DHT22;9773;47.062;15.446;2023-04-06T04:54:07;0.30;81.20
19279;DHT22;9773;47.062;15.446;2023-04-06T04:56:32;0.30;81.20
19279;DHT22;9773;47.062;15.446;2023-04-06T04:58:58;0.10;81.40
19279;DHT22;9773;47.062;15.446;2023-04-06T05:01:24;0.20;81.50
19279;DHT22;9773;47.062;15.446;2023-04-06T05:03:49;0.20;81.40
19279;DHT22;9773;47.062;15.446;2023-04-06T05:06:15;0.30;81.00
19279;DHT22;9773;47.062;15.446;2023-04-06T05:08:42;0.40;81.00
19279;DHT22;9773;47.062;15.446;2023-04-06T05:11:08;0.50;81.00
19279;DHT22;9773;47.062;15.446;2023-04-06T05:13:34;0.60;80.90
19279;DHT22;9773;47.062;15.446;2023-04-06T05:16:00;0.50;81.00
19279;DHT22;9773;47.062;15.446;2023-04-06T05:18:26;0.60;81.30
19279;DHT22;9773;47.062;15.446;2023-04-06T05:20:52;0.50;81.10
19279;DHT22;9773;47.062;15.446;2023-04-06T05:23:18;0.60;80.90
19279;DHT22;9773;47.062;15.446;2023-04-06T05:25:43;0.60;80.90
19279;DHT22;9773;47.062;15.446;2023-04-06T05:28:09;0.60;80.70
19279;DHT22;9773;47.062;15.446;2023-04-06T05:30:35;0.60;80.70
19279;DHT22;9773;47.062;15.446;2023-04-06T05:33:03;0.70;80.80
19279;DHT22;9773;47.062;15.446;2023-04-06T05:35:29;0.70;80.50
19279;DHT22;9773;47.062;15.446;2023-04-06T05:37:54;0.80;80.70
19279;DHT22;9773;47.062;15.446;2023-04-06T05:40:20;0.80;80.20
19279;DHT22;9773;47.062;15.446;2023-04-06T05:42:46;0.90;80.10
19279;DHT22;9773;47.062;15.446;2023-04-06T05:45:12;1.00;80.00
19279;DHT22;9773;47.062;15.446;2023-04-06T05:47:42;1.20;80.10
19279;DHT22;9773;47.062;15.446;2023-04-06T05:50:10;1.20;79.40
19279;DHT22;9773;47.062;15.446;2023-04-06T05:52:36;1.30;79.40
19279;DHT22;9773;47.062;15.446;2023-04-06T05:55:03;1.40;79.00
19279;DHT22;9773;47.062;15.446;2023-04-06T05:57:29;1.40;78.90
19279;DHT22;9773;47.062;15.446;2023-04-06T05:59:54;1.30;79.10
19279;DHT22;9773;47.062;15.446;2023-04-06T06:02:21;1.40;78.90
19279;DHT22;9773;47.062;15.446;2023-04-06T06:04:47;1.50;78.80
19279;DHT22;9773;47.062;15.446;2023-04-06T06:07:13;1.50;78.80
19279;DHT22;9773;47.062;15.446;2023-04-06T06:09:39;1.70;78.70
19279;DHT22;9773;47.062;15.446;2023-04-06T06:12:05;1.70;78.70
19279;DHT22;9773;47.062;15.446;2023-04-06T06:14:31;1.80;78.70
19279;DHT22;9773;47.062;15.446;2023-04-06T06:16:57;2.00;78.60
19279;DHT22;9773;47.062;15.446;2023-04-06T06:19:22;2.10;77.90
19279;DHT22;9773;47.062;15.446;2023-04-06T06:21:48;2.20;77.30
19279;DHT22;9773;47.062;15.446;2023-04-06T06:24:14;2.30;77.30
19279;DHT22;9773;47.062;15.446;2023-04-06T06:26:39;2.30;76.60
19279;DHT22;9773;47.062;15.446;2023-04-06T06:29:06;2.50;76.10
19279;DHT22;9773;47.062;15.446;2023-04-06T06:31:32;2.60;76.10
19279;DHT22;9773;47.062;15.446;2023-04-06T06:33:58;2.80;75.70
19279;DHT22;9773;47.062;15.446;2023-04-06T06:36:25;2.80;75.30
19279;DHT22;9773;47.062;15.446;2023-04-06T06:38:51;2.90;75.60
19279;DHT22;9773;47.062;15.446;2023-04-06T06:41:17;2.90;75.40
19279;DHT22;9773;47.062;15.446;2023-04-06T06:43:43;3.00;75.20
19279;DHT22;9773;47.062;15.446;2023-04-06T06:46:08;3.10;74.60
19279;DHT22;9773;47.062;15.446;2023-04-06T06:48:34;3.10;74.40
19279;DHT22;9773;47.062;15.446;2023-04-06T06:51:00;3.10;74.10
19279;DHT22;9773;47.062;15.446;2023-04-06T06:53:26;3.10;74.70
19279;DHT22;9773;47.062;15.446;2023-04-06T06:55:51;3.20;74.80
19279;DHT22;9773;47.062;15.446;2023-04-06T06:58:18;3.30;75.00
19279;DHT22;9773;47.062;15.446;2023-04-06T07:00:45;3.50;74.50
19279;DHT22;9773;47.062;15.446;2023-04-06T07:03:11;3.50;74.70
19279;DHT22;9773;47.062;15.446;2023-04-06T07:05:37;3.60;74.60
19279;DHT22;9773;47.062;15.446;2023-04-06T07:08:03;3.80;73.80
19279;DHT22;9773;47.062;15.446;2023-04-06T07:10:30;3.80;73.70
19279;DHT22;9773;47.062;15.446;2023-04-06T07:12:55;3.90;73.50
19279;DHT22;9773;47.062;15.446;2023-04-06T07:15:21;3.90;73.70
19279;DHT22;9773;47.062;15.446;2023-04-06T07:17:47;4.00;74.40
19279;DHT22;9773;47.062;15.446;2023-04-06T07:20:14;4.00;74.80
19279;DHT22;9773;47.062;15.446;2023-04-06T07:22:42;4.20;75.30
19279;DHT22;9773;47.062;15.446;2023-04-06T07:25:08;4.30;75.40
19279;DHT22;9773;47.062;15.446;2023-04-06T07:27:34;4.30;75.40
19279;DHT22;9773;47.062;15.446;2023-04-06T07:30:00;4.40;75.40
19279;DHT22;9773;47.062;15.446;2023-04-06T07:32:25;4.50;74.90
19279;DHT22;9773;47.062;15.446;2023-04-06T07:34:51;4.50;75.30
19279;DHT22;9773;47.062;15.446;2023-04-06T07:37:17;4.60;74.90
19279;DHT22;9773;47.062;15.446;2023-04-06T07:39:43;4.70;74.20
19279;DHT22;9773;47.062;15.446;2023-04-06T07:42:09;4.80;74.20
19279;DHT22;9773;47.062;15.446;2023-04-06T07:44:34;4.90;73.10
19279;DHT22;9773;47.062;15.446;2023-04-06T07:47:00;4.90;72.70
19279;DHT22;9773;47.062;15.446;2023-04-06T07:49:26;5.00;72.90
19279;DHT22;9773;47.062;15.446;2023-04-06T07:51:52;5.00;72.50
19279;DHT22;9773;47.062;15.446;2023-04-06T07:54:17;5.20;71.60
19279;DHT22;9773;47.062;15.446;2023-04-06T07:56:43;5.40;71.50
19279;DHT22;9773;47.062;15.446;2023-04-06T07:59:09;5.40;70.50
19279;DHT22;9773;47.062;15.446;2023-04-06T08:01:36;5.50;70.00
19279;DHT22;9773;47.062;15.446;2023-04-06T08:04:02;5.50;70.30
19279;DHT22;9773;47.062;15.446;2023-04-06T08:06:28;5.60;70.20
19279;DHT22;9773;47.062;15.446;2023-04-06T08:08:54;5.70;70.10
19279;DHT22;9773;47.062;15.446;2023-04-06T08:11:20;5.90;69.00
19279;DHT22;9773;47.062;15.446;2023-04-06T08:13:46;5.90;69.30
19279;DHT22;9773;47.062;15.446;2023-04-06T08:16:11;5.90;69.30
19279;DHT22;9773;47.062;15.446;2023-04-06T08:18:37;5.80;69.40
19279;DHT22;9773;47.062;15.446;2023-04-06T08:21:06;5.90;70.00
19279;DHT22;9773;47.062;15.446;2023-04-06T08:23:31;6.00;69.70
19279;DHT22;9773;47.062;15.446;2023-04-06T08:25:57;6.10;69.20
19279;DHT22;9773;47.062;15.446;2023-04-06T08:28:23;6.20;69.30
19279;DHT22;9773;47.062;15.446;2023-04-06T08:30:49;6.20;68.40
19279;DHT22;9773;47.062;15.446;2023-04-06T08:33:14;6.40;67.20
19279;DHT22;9773;47.062;15.446;2023-04-06T08:35:41;6.50;67.20
19279;DHT22;9773;47.062;15.446;2023-04-06T08:38:06;6.60;63.30
19279;DHT22;9773;47.062;15.446;2023-04-06T08:40:37;6.70;62.80
19279;DHT22;9773;47.062;15.446;2023-04-06T08:43:04;6.80;62.30
19279;DHT22;9773;47.062;15.446;2023-04-06T08:45:34;6.80;62.30
19279;DHT22;9773;47.062;15.446;2023-04-06T08:48:00;6.90;62.00
19279;DHT22;9773;47.062;15.446;2023-04-06T08:50:32;7.00;61.70
19279;DHT22;9773;47.062;15.446;2023-04-06T08:52:59;7.10;61.60
19279;DHT22;9773;47.062;15.446;2023-04-06T08:55:25;7.10;61.60
19279;DHT22;9773;47.062;15.446;2023-04-06T08:57:52;7.10;62.30
19279;DHT22;9773;47.062;15.446;2023-04-06T09:00:20;7.20;62.50
19279;DHT22;9773;47.062;15.446;2023-04-06T09:02:49;7.20;59.70
19279;DHT22;9773;47.062;15.446;2023-04-06T09:05:16;7.30;60.30
19279;DHT22;9773;47.062;15.446;2023-04-06T09:07:42;7.40;59.60
19279;DHT22;9773;47.062;15.446;2023-04-06T09:10:08;7.40;59.00
19279;DHT22;9773;47.062;15.446;2023-04-06T09:12:34;7.40;58.90
19279;DHT22;9773;47.062;15.446;2023-04-06T09:15:00;7.50;58.30
19279;DHT22;9773;47.062;15.446;2023-04-06T09:17:32;7.50;57.90
19279;DHT22;9773;47.062;15.446;2023-04-06T09:20:02;7.50;58.20
19279;DHT22;9773;47.062;15.446;2023-04-06T09:22:39;7.60;58.10
19279;DHT22;9773;47.062;15.446;2023-04-06T09:25:06;7.70;58.30
19279;DHT22;9773;47.062;15.446;2023-04-06T09:27:34;7.90;57.80
19279;DHT22;9773;47.062;15.446;2023-04-06T09:30:10;7.90;58.00
19279;DHT22;9773;47.062;15.446;2023-04-06T09:32:50;8.00;58.30
19279;DHT22;9773;47.062;15.446;2023-04-06T09:35:18;8.00;57.40
19279;DHT22;9773;47.062;15.446;2023-04-06T09:37:49;8.00;58.20
19279;DHT22;9773;47.062;15.446;2023-04-06T09:40:16;8.10;57.70
19279;DHT22;9773;47.062;15.446;2023-04-06T09:42:46;8.10;57.50
19279;DHT22;9773;47.062;15.446;2023-04-06T09:45:12;8.20;57.80
19279;DHT22;9773;47.062;15.446;2023-04-06T09:47:40;8.30;56.90
19279;DHT22;9773;47.062;15.446;2023-04-06T09:50:09;8.50;57.00
19279;DHT22;9773;47.062;15.446;2023-04-06T09:55:05;8.40;56.80
19279;DHT22;9773;47.062;15.446;2023-04-06T10:00:29;8.60;56.60
19279;DHT22;9773;47.062;15.446;2023-04-06T10:05:57;8.60;56.00
19279;DHT22;9773;47.062;15.446;2023-04-06T10:08:28;8.70;56.10
19279;DHT22;9773;47.062;15.446;2023-04-06T10:10:57;8.60;55.50
19279;DHT22;9773;47.062;15.446;2023-04-06T10:13:24;8.80;55.70
19279;DHT22;9773;47.062;15.446;2023-04-06T10:15:51;8.70;55.50
19279;DHT22;9773;47.062;15.446;2023-04-06T10:18:17;8.70;56.40
19279;DHT22;9773;47.062;15.446;2023-04-06T10:21:01;8.90;55.80
19279;DHT22;9773;47.062;15.446;2023-04-06T10:23:36;8.90;55.30
19279;DHT22;9773;47.062;15.446;2023-04-06T10:26:03;9.00;55.20
19279;DHT22;9773;47.062;15.446;2023-04-06T10:28:34;9.00;55.30
19279;DHT22;9773;47.062;15.446;2023-04-06T10:31:04;9.10;54.80
19279;DHT22;9773;47.062;15.446;2023-04-06T10:33:31;9.20;54.50
19279;DHT22;9773;47.062;15.446;2023-04-06T10:35:57;9.20;54.10
19279;DHT22;9773;47.062;15.446;2023-04-06T10:38:37;9.20;54.20
19279;DHT22;9773;47.062;15.446;2023-04-06T10:41:10;9.20;54.10
19279;DHT22;9773;47.062;15.446;2023-04-06T10:43:38;9.20;54.20
19279;DHT22;9773;47.062;15.446;2023-04-06T10:46:05;9.20;54.70
19279;DHT22;9773;47.062;15.446;2023-04-06T10:48:39;9.40;55.00
19279;DHT22;9773;47.062;15.446;2023-04-06T10:51:13;9.50;53.70
19279;DHT22;9773;47.062;15.446;2023-04-06T10:53:47;9.60;53.60
19279;DHT22;9773;47.062;15.446;2023-04-06T10:56:15;9.70;53.90
19279;DHT22;9773;47.062;15.446;2023-04-06T10:58:49;9.80;54.10
19279;DHT22;9773;47.062;15.446;2023-04-06T11:01:20;9.80;53.40
19279;DHT22;9773;47.062;15.446;2023-04-06T11:03:50;9.90;52.80
19279;DHT22;9773;47.062;15.446;2023-04-06T11:06:28;9.80;52.70
19279;DHT22;9773;47.062;15.446;2023-04-06T11:08:55;9.80;52.60
19279;DHT22;9773;47.062;15.446;2023-04-06T11:11:23;9.90;52.70
19279;DHT22;9773;47.062;15.446;2023-04-06T11:13:53;10.00;51.50
19279;DHT22;9773;47.062;15.446;2023-04-06T11:16:24;10.00;51.50
19279;DHT22;9773;47.062;15.446;2023-04-06T11:21:16;9.90;51.40
19279;DHT22;9773;47.062;15.446;2023-04-06T11:23:42;10.00;50.50
19279;DHT22;9773;47.062;15.446;2023-04-06T11:26:14;10.10;50.50
19279;DHT22;9773;47.062;15.446;2023-04-06T11:28:41;10.10;51.40
19279;DHT22;9773;47.062;15.446;2023-04-06T11:31:09;10.10;50.90
19279;DHT22;9773;47.062;15.446;2023-04-06T11:33:39;10.00;50.90
19279;DHT22;9773;47.062;15.446;2023-04-06T11:36:05;10.10;51.10
19279;DHT22;9773;47.062;15.446;2023-04-06T11:38:32;10.20;49.60
19279;DHT22;9773;47.062;15.446;2023-04-06T11:40:57;10.10;50.40
19279;DHT22;9773;47.062;15.446;2023-04-06T11:43:28;10.20;51.00
19279;DHT22;9773;47.062;15.446;2023-04-06T11:46:00;10.40;50.70
19279;DHT22;9773;47.062;15.446;2023-04-06T11:48:27;10.50;49.70
19279;DHT22;9773;47.062;15.446;2023-04-06T11:50:58;10.50;49.10
19279;DHT22;9773;47.062;15.446;2023-04-06T11:53:27;10.50;49.00
19279;DHT22;9773;47.062;15.446;2023-04-06T11:55:53;10.50;48.80
19279;DHT22;9773;47.062;15.446;2023-04-06T11:58:19;10.50;48.60
19279;DHT22;9773;47.062;15.446;2023-04-06T12:00:44;10.50;48.40
19279;DHT22;9773;47.062;15.446;2023-04-06T12:03:14;10.50;48.70
19279;DHT22;9773;47.062;15.446;2023-04-06T12:05:40;10.50;48.40
19279;DHT22;9773;47.062;15.446;2023-04-06T12:08:06;10.60;48.50
19279;DHT22;9773;47.062;15.446;2023-04-06T12:10:31;10.70;47.90
19279;DHT22;9773;47.062;15.446;2023-04-06T12:12:57;10.70;48.50
19279;DHT22;9773;47.062;15.446;2023-04-06T12:15:23;10.70;48.00
19279;DHT22;9773;47.062;15.446;2023-04-06T12:17:49;10.80;47.90
19279;DHT22;9773;47.062;15.446;2023-04-06T12:20:17;10.80;48.20
19279;DHT22;9773;47.062;15.446;2023-04-06T12:22:43;10.90;47.80
19279;DHT22;9773;47.062;15.446;2023-04-06T12:25:09;10.90;48.00
19279;DHT22;9773;47.062;15.446;2023-04-06T12:27:35;10.90;48.50
19279;DHT22;9773;47.062;15.446;2023-04-06T12:30:01;10.90;48.10
19279;DHT22;9773;47.062;15.446;2023-04-06T12:32:27;10.90;47.50
19279;DHT22;9773;47.062;15.446;2023-04-06T12:34:53;10.90;47.20
19279;DHT22;9773;47.062;15.446;2023-04-06T12:37:19;10.90;47.20
19279;DHT22;9773;47.062;15.446;2023-04-06T12:39:45;11.00;47.50
19279;DHT22;9773;47.062;15.446;2023-04-06T12:42:11;10.90;46.80
19279;DHT22;9773;47.062;15.446;2023-04-06T12:44:38;11.00;47.40
19279;DHT22;9773;47.062;15.446;2023-04-06T12:47:03;11.10;47.30
19279;DHT22;9773;47.062;15.446;2023-04-06T12:49:30;11.10;47.30
19279;DHT22;9773;47.062;15.446;2023-04-06T12:51:57;11.10;47.20
19279;DHT22;9773;47.062;15.446;2023-04-06T12:54:22;11.20;47.90
19279;DHT22;9773;47.062;15.446;2023-04-06T12:56:48;11.20;47.40
19279;DHT22;9773;47.062;15.446;2023-04-06T12:59:14;11.20;46.60
19279;DHT22;9773;47.062;15.446;2023-04-06T13:01:40;11.10;47.00
19279;DHT22;9773;47.062;15.446;2023-04-06T13:04:05;11.20;47.00
19279;DHT22;9773;47.062;15.446;2023-04-06T13:06:31;11.20;46.60
19279;DHT22;9773;47.062;15.446;2023-04-06T13:08:57;11.30;46.50
19279;DHT22;9773;47.062;15.446;2023-04-06T13:11:23;11.30;46.20
19279;DHT22;9773;47.062;15.446;2023-04-06T13:13:50;11.30;46.40
19279;DHT22;9773;47.062;15.446;2023-04-06T13:16:16;11.20;45.90
19279;DHT22;9773;47.062;15.446;2023-04-06T13:18:41;11.30;46.40
19279;DHT22;9773;47.062;15.446;2023-04-06T13:21:07;11.30;46.70
19279;DHT22;9773;47.062;15.446;2023-04-06T13:23:34;11.30;46.20
19279;DHT22;9773;47.062;15.446;2023-04-06T13:26:02;11.30;46.30
19279;DHT22;9773;47.062;15.446;2023-04-06T13:28:29;11.40;46.40
19279;DHT22;9773;47.062;15.446;2023-04-06T13:30:55;11.40;46.20
19279;DHT22;9773;47.062;15.446;2023-04-06T13:33:21;11.40;46.00
19279;DHT22;9773;47.062;15.446;2023-04-06T13:35:47;11.40;46.30
19279;DHT22;9773;47.062;15.446;2023-04-06T13:38:13;11.40;45.40
19279;DHT22;9773;47.062;15.446;2023-04-06T13:40:40;11.40;46.00
19279;DHT22;9773;47.062;15.446;2023-04-06T13:43:06;11.40;46.50
19279;DHT22;9773;47.062;15.446;2023-04-06T13:45:33;11.40;46.30
19279;DHT22;9773;47.062;15.446;2023-04-06T13:47:58;11.30;46.60
19279;DHT22;9773;47.062;15.446;2023-04-06T13:50:28;11.50;46.80
19279;DHT22;9773;47.062;15.446;2023-04-06T13:52:54;11.60;46.80
19279;DHT22;9773;47.062;15.446;2023-04-06T13:55:21;11.60;45.90
19279;DHT22;9773;47.062;15.446;2023-04-06T13:57:50;11.60;45.90
19279;DHT22;9773;47.062;15.446;2023-04-06T14:00:16;11.60;45.60
19279;DHT22;9773;47.062;15.446;2023-04-06T14:02:42;11.60;45.80
19279;DHT22;9773;47.062;15.446;2023-04-06T14:05:08;11.60;46.60
19279;DHT22;9773;47.062;15.446;2023-04-06T14:07:33;11.60;46.60
19279;DHT22;9773;47.062;15.446;2023-04-06T14:09:59;11.70;46.60
19279;DHT22;9773;47.062;15.446;2023-04-06T14:12:25;11.70;45.80
19279;DHT22;9773;47.062;15.446;2023-04-06T14:14:52;11.50;45.60
19279;DHT22;9773;47.062;15.446;2023-04-06T14:17:18;11.60;45.80
19279;DHT22;9773;47.062;15.446;2023-04-06T14:19:43;11.70;46.70
19279;DHT22;9773;47.062;15.446;2023-04-06T14:22:09;11.70;45.40
19279;DHT22;9773;47.062;15.446;2023-04-06T14:24:35;11.80;46.00
19279;DHT22;9773;47.062;15.446;2023-04-06T14:27:02;11.70;45.50
19279;DHT22;9773;47.062;15.446;2023-04-06T14:29:28;11.60;45.70
19279;DHT22;9773;47.062;15.446;2023-04-06T14:31:55;11.60;45.80
19279;DHT22;9773;47.062;15.446;2023-04-06T14:34:26;11.60;45.20
19279;DHT22;9773;47.062;15.446;2023-04-06T14:36:52;11.60;45.70
19279;DHT22;9773;47.062;15.446;2023-04-06T14:39:18;11.70;45.20
19279;DHT22;9773;47.062;15.446;2023-04-06T14:41:44;11.60;45.60
19279;DHT22;9773;47.062;15.446;2023-04-06T14:44:10;11.70;46.10
19279;DHT22;9773;47.062;15.446;2023-04-06T14:46:37;11.80;47.30
19279;DHT22;9773;47.062;15.446;2023-04-06T14:49:03;11.70;46.40
19279;DHT22;9773;47.062;15.446;2023-04-06T14:51:29;11.60;45.60
19279;DHT22;9773;47.062;15.446;2023-04-06T14:53:56;11.60;45.50
19279;DHT22;9773;47.062;15.446;2023-04-06T14:56:23;11.60;45.50
19279;DHT22;9773;47.062;15.446;2023-04-06T14:58:52;11.70;45.40
19279;DHT22;9773;47.062;15.446;2023-04-06T15:01:18;11.60;45.10
19279;DHT22;9773;47.062;15.446;2023-04-06T15:03:44;11.60;45.80
19279;DHT22;9773;47.062;15.446;2023-04-06T15:06:14;11.60;45.30
19279;DHT22;9773;47.062;15.446;2023-04-06T15:08:43;11.60;46.20
19279;DHT22;9773;47.062;15.446;2023-04-06T15:11:10;11.60;45.90
19279;DHT22;9773;47.062;15.446;2023-04-06T15:13:36;11.70;46.10
19279;DHT22;9773;47.062;15.446;2023-04-06T15:16:02;11.60;45.50
19279;DHT22;9773;47.062;15.446;2023-04-06T15:18:28;11.60;45.40
19279;DHT22;9773;47.062;15.446;2023-04-06T15:20:54;11.60;46.50
19279;DHT22;9773;47.062;15.446;2023-04-06T15:23:20;11.60;46.20
19279;DHT22;9773;47.062;15.446;2023-04-06T15:25:46;11.60;47.20
19279;DHT22;9773;47.062;15.446;2023-04-06T15:28:12;11.60;46.40
19279;DHT22;9773;47.062;15.446;2023-04-06T15:30:38;11.60;46.80
19279;DHT22;9773;47.062;15.446;2023-04-06T15:33:04;11.60;46.10
19279;DHT22;9773;47.062;15.446;2023-04-06T15:35:32;11.50;46.00
19279;DHT22;9773;47.062;15.446;2023-04-06T15:37:59;11.50;45.80
19279;DHT22;9773;47.062;15.446;2023-04-06T15:40:26;11.40;45.40
19279;DHT22;9773;47.062;15.446;2023-04-06T15:42:52;11.40;45.80
19279;DHT22;9773;47.062;15.446;2023-04-06T15:45:18;11.30;45.60
19279;DHT22;9773;47.062;15.446;2023-04-06T15:47:44;11.40;45.70
19279;DHT22;9773;47.062;15.446;2023-04-06T15:50:11;11.50;45.80